Time;durP1;ratioP1;P1;durP2;ratioP2;P2;SDS_P1;SDS_P2;PMS_P1;PMS_P2;Temp;Humidity;BMP_temperature;BMP_pressure;BME280_temperature;BME280_humidity;BME280_pressure;Samples;Min_cycle;Max_cycle;Signal;HPM_P1;HPM_P2
2023/04/27 11:07:34;;;;;;;38.00;8.67;;;11.30;62.70;;;;;;5104754;27;21064;-84
2023/04/27 11:10:01;;;;;;;49.40;10.17;;;11.40;64.10;;;;;;5103401;28;20277;-82
2023/04/27 11:12:28;;;;;;;42.67;9.37;;;11.70;64.30;;;;;;5089943;28;20206;-84
2023/04/27 11:14:58;;;;;;;35.50;8.20;;;12.10;63.80;;;;;;5100986;28;20284;-85
2023/04/27 11:17:29;;;;;;;55.37;10.50;;;12.50;63.40;;;;;;5096271;28;20206;-85
2023/04/27 11:19:56;;;;;;;38.80;9.07;;;12.80;62.80;;;;;;5105161;28;20284;-85
2023/04/27 11:22:23;;;;;;;33.90;8.20;;;13.10;62.40;;;;;;5105295;28;20202;-85
2023/04/27 11:24:52;;;;;;;30.33;7.67;;;13.40;62.10;;;;;;5105203;28;20289;-85
2023/04/27 11:27:21;;;;;;;41.80;8.40;;;13.60;61.70;;;;;;5105546;28;20240;-87
2023/04/27 11:29:48;;;;;;;41.23;8.93;;;13.80;61.50;;;;;;5105556;28;20197;-85
2023/04/27 11:32:21;;;;;;;28.83;7.53;;;14.00;61.20;;;;;;5088890;28;20608;-86
2023/04/27 11:34:52;;;;;;;36.47;8.10;;;14.20;61.00;;;;;;5085252;28;20199;-86
2023/04/27 11:37:24;;;;;;;27.60;7.40;;;14.40;60.80;;;;;;5100970;28;20733;-86
2023/04/27 11:40:00;;;;;;;34.67;8.27;;;14.60;60.60;;;;;;5103798;28;20234;-86
2023/04/27 11:42:28;;;;;;;28.27;7.37;;;14.70;60.30;;;;;;5105053;28;20251;-87
2023/04/27 11:44:56;;;;;;;37.57;8.57;;;14.90;60.30;;;;;;5105111;28;20296;-87
2023/04/27 11:47:26;;;;;;;51.97;9.33;;;15.00;60.30;;;;;;5103722;28;20324;-87
2023/04/27 11:49:55;;;;;;;38.67;8.40;;;15.20;60.10;;;;;;5084111;28;20240;-86
2023/04/27 11:52:22;;;;;;;41.97;8.47;;;15.30;60.00;;;;;;5084290;28;20214;-86
2023/04/27 11:54:51;;;;;;;42.17;8.83;;;15.50;60.00;;;;;;5084936;28;20210;-87
2023/04/27 11:57:24;;;;;;;35.40;8.03;;;15.50;59.80;;;;;;5084900;28;20187;-89
2023/04/27 11:59:52;;;;;;;38.00;8.20;;;15.60;59.60;;;;;;5084777;28;20185;-86
2023/04/27 12:02:20;;;;;;;32.80;7.83;;;15.80;59.70;;;;;;5084877;28;20591;-86
2023/04/27 12:04:47;;;;;;;58.63;10.00;;;15.80;59.50;;;;;;5082784;28;20217;-87
2023/04/27 12:07:14;;;;;;;35.90;7.70;;;15.90;59.50;;;;;;5102971;28;20324;-87
2023/04/27 12:09:43;;;;;;;33.57;8.23;;;16.00;59.40;;;;;;5104721;28;20190;-87
2023/04/27 12:12:11;;;;;;;40.07;9.27;;;16.10;59.30;;;;;;5104675;28;20251;-86
2023/04/27 12:14:40;;;;;;;44.67;9.30;;;16.20;59.30;;;;;;5104759;28;20205;-86
2023/04/27 12:17:07;;;;;;;39.67;8.27;;;16.30;59.20;;;;;;5101382;28;20214;-92
2023/04/27 12:19:36;;;;;;;30.23;8.20;;;16.30;59.20;;;;;;5092037;28;20219;-90
2023/04/27 12:22:03;;;;;;;34.23;8.07;;;16.40;59.10;;;;;;5073935;28;20862;-91
2023/04/27 12:24:31;;;;;;;32.63;7.70;;;16.50;59.10;;;;;;5071053;28;20590;-91
2023/04/27 12:26:58;;;;;;;33.23;7.90;;;16.60;59.00;;;;;;5071120;28;20235;-90
2023/04/27 12:29:25;;;;;;;46.63;9.47;;;16.60;58.90;;;;;;5069817;28;21073;-91
2023/04/27 12:31:53;;;;;;;39.07;8.60;;;16.70;58.90;;;;;;5071615;28;20649;-92
2023/04/27 12:34:21;;;;;;;35.43;8.67;;;16.80;58.80;;;;;;5071167;28;20234;-90
2023/04/27 12:36:48;;;;;;;33.23;8.17;;;16.90;58.90;;;;;;5070576;28;20207;-92
2023/04/27 12:39:16;;;;;;;32.80;7.57;;;16.90;58.80;;;;;;5070876;28;20297;-92
2023/04/27 12:41:43;;;;;;;32.27;8.20;;;17.00;58.70;;;;;;5071053;28;20210;-87
2023/04/27 12:44:11;;;;;;;38.80;8.43;;;17.00;58.60;;;;;;5070507;28;20677;-91
2023/04/27 12:46:38;;;;;;;30.30;8.23;;;17.10;58.60;;;;;;5070694;28;20712;-87
2023/04/27 12:49:07;;;;;;;39.10;8.13;;;17.20;58.60;;;;;;5070283;28;20229;-86
2023/04/27 12:51:35;;;;;;;27.53;7.60;;;17.20;58.50;;;;;;5069940;28;20292;-86
2023/04/27 12:54:03;;;;;;;32.10;7.90;;;17.30;58.50;;;;;;5077584;28;20674;-86
2023/04/27 12:56:30;;;;;;;29.63;7.27;;;17.30;58.50;;;;;;5087700;28;20647;-87
2023/04/27 12:58:57;;;;;;;24.33;6.87;;;17.40;58.50;;;;;;5090684;28;20553;-87
2023/04/27 13:01:26;;;;;;;27.33;7.70;;;17.40;58.40;;;;;;5090247;28;20767;-88
2023/04/27 13:03:54;;;;;;;39.77;8.93;;;17.50;58.40;;;;;;5089429;28;20683;-86
2023/04/27 13:06:24;;;;;;;34.43;7.80;;;17.50;58.30;;;;;;5086247;28;20226;-89
2023/04/27 13:08:51;;;;;;;26.53;7.40;;;17.60;58.30;;;;;;5070273;28;20207;-88
2023/04/27 13:11:18;;;;;;;27.77;7.23;;;17.60;58.20;;;;;;5069894;28;20305;-87
2023/04/27 13:13:48;;;;;;;30.63;7.67;;;17.70;58.20;;;;;;5069761;28;20202;-86
2023/04/27 13:16:17;;;;;;;24.30;7.60;;;17.70;58.10;;;;;;5069956;28;20207;-88
2023/04/27 13:18:48;;;;;;;24.57;6.73;;;17.70;58.10;;;;;;5070020;28;20203;-88
2023/04/27 13:21:17;;;;;;;34.83;7.40;;;17.80;58.20;;;;;;5069615;28;20264;-92
2023/04/27 13:23:46;;;;;;;27.13;7.73;;;17.80;58.10;;;;;;5078192;28;20222;-89
2023/04/27 13:26:13;;;;;;;41.70;7.90;;;17.90;58.10;;;;;;5086263;28;20233;-87
2023/04/27 13:28:40;;;;;;;33.00;8.53;;;17.90;58.10;;;;;;5070307;28;20691;-87
2023/04/27 13:31:07;;;;;;;34.97;8.30;;;17.90;58.00;;;;;;5070578;28;20294;-90
2023/04/27 13:33:42;;;;;;;44.57;8.63;;;18.00;58.00;;;;;;5088898;28;20297;-90
2023/04/27 13:36:09;;;;;;;22.53;7.03;;;18.00;57.80;;;;;;5071250;28;20310;-91
2023/04/27 13:38:36;;;;;;;22.30;6.73;;;18.10;58.00;;;;;;5071250;28;20305;-91
2023/04/27 13:41:05;;;;;;;35.90;8.60;;;18.10;57.90;;;;;;5069400;28;20287;-90
2023/04/27 13:43:34;;;;;;;25.03;6.77;;;18.10;57.80;;;;;;5088923;28;20293;-90
2023/04/27 13:46:02;;;;;;;33.60;8.07;;;18.20;57.80;;;;;;5089829;28;20864;-92
2023/04/27 13:48:30;;;;;;;46.27;8.33;;;18.20;57.80;;;;;;5087489;28;20297;-90
2023/04/27 13:50:58;;;;;;;30.00;7.30;;;18.20;57.70;;;;;;5089934;28;20198;-93
2023/04/27 13:53:25;;;;;;;30.53;7.50;;;18.20;57.70;;;;;;5089485;28;20222;-91
2023/04/27 13:55:53;;;;;;;27.80;7.50;;;18.30;57.80;;;;;;5089502;28;20203;-90
2023/04/27 13:58:21;;;;;;;30.37;7.60;;;18.30;57.80;;;;;;5089302;28;20221;-89
2023/04/27 14:00:51;;;;;;;27.17;7.53;;;18.30;57.60;;;;;;5089212;28;20323;-87
2023/04/27 14:03:18;;;;;;;29.17;7.13;;;18.40;57.60;;;;;;5089286;28;20195;-88
2023/04/27 14:05:47;;;;;;;28.00;7.27;;;18.40;57.60;;;;;;5088793;28;20205;-88
2023/04/27 14:08:14;;;;;;;33.70;7.73;;;18.40;57.60;;;;;;5089358;28;20223;-92
2023/04/27 14:10:42;;;;;;;33.57;8.07;;;18.50;57.60;;;;;;5089086;28;20254;-86
2023/04/27 14:13:09;;;;;;;26.80;7.03;;;18.50;57.50;;;;;;5089211;28;20202;-88
2023/04/27 14:15:37;;;;;;;32.90;7.40;;;18.50;57.50;;;;;;5087152;28;20202;-90
2023/04/27 14:18:06;;;;;;;30.50;7.73;;;18.50;57.40;;;;;;5078908;28;20257;-88
2023/04/27 14:20:33;;;;;;;27.27;7.57;;;18.60;57.40;;;;;;5068574;28;20705;-90
2023/04/27 14:23:00;;;;;;;30.90;7.50;;;18.60;57.40;;;;;;5068764;28;20690;-89
2023/04/27 14:25:31;;;;;;;26.17;6.90;;;18.60;57.40;;;;;;5068949;28;20298;-90
2023/04/27 14:27:59;;;;;;;30.40;7.37;;;18.60;57.40;;;;;;5074640;28;20226;-89
2023/04/27 14:30:26;;;;;;;39.43;7.83;;;18.70;57.50;;;;;;5088524;28;20183;-88
2023/04/27 14:32:57;;;;;;;36.17;7.63;;;18.70;57.40;;;;;;5088805;28;20638;-89
2023/04/27 14:35:24;;;;;;;28.87;7.63;;;18.70;57.20;;;;;;5088860;28;20243;-89
2023/04/27 14:37:52;;;;;;;26.00;6.93;;;18.70;57.30;;;;;;5080963;28;20634;-92
2023/04/27 14:40:19;;;;;;;23.97;7.23;;;18.70;57.30;;;;;;5088365;28;20287;-93
2023/04/27 14:42:46;;;;;;;29.97;7.43;;;18.70;57.20;;;;;;5089085;28;20285;-90
2023/04/27 14:45:14;;;;;;;37.07;8.43;;;18.80;57.20;;;;;;5088799;28;20230;-90
2023/04/27 14:47:41;;;;;;;35.43;7.63;;;18.80;57.20;;;;;;5088116;28;20651;-86
2023/04/27 14:50:11;;;;;;;35.27;7.67;;;18.80;57.20;;;;;;5088600;28;20210;-86
2023/04/27 14:52:38;;;;;;;28.40;7.23;;;18.80;57.10;;;;;;5088415;28;20203;-88
2023/04/27 14:55:06;;;;;;;30.63;7.30;;;18.80;57.10;;;;;;5088710;28;20199;-86
2023/04/27 14:57:34;;;;;;;27.47;6.87;;;18.80;57.10;;;;;;5088498;28;20324;-86
2023/04/27 15:00:03;;;;;;;29.50;6.70;;;18.90;57.10;;;;;;5088209;28;20682;-85
2023/04/27 15:02:31;;;;;;;79.00;11.80;;;18.90;57.10;;;;;;5081473;28;20211;-86
2023/04/27 15:04:57;;;;;;;25.00;6.67;;;18.90;57.10;;;;;;5086971;28;20651;-87
2023/04/27 15:07:26;;;;;;;29.53;6.53;;;18.90;57.00;;;;;;5087263;28;20234;-86
2023/04/27 15:09:53;;;;;;;30.93;7.43;;;18.80;56.90;;;;;;5079473;28;20674;-87
2023/04/27 15:12:22;;;;;;;30.80;7.57;;;18.90;57.00;;;;;;5087935;28;20605;-87
2023/04/27 15:14:51;;;;;;;32.87;7.13;;;18.90;56.90;;;;;;5087575;28;20292;-86
2023/04/27 15:17:18;;;;;;;32.80;8.27;;;18.90;56.90;;;;;;5072909;28;20231;-86
2023/04/27 15:19:45;;;;;;;25.53;6.97;;;18.90;56.90;;;;;;5068351;28;20882;-87
2023/04/27 15:22:12;;;;;;;29.20;7.20;;;18.90;56.90;;;;;;5067880;28;20246;-86
2023/04/27 15:24:40;;;;;;;31.07;7.33;;;19.00;57.00;;;;;;5067952;28;20291;-86
2023/04/27 15:27:07;;;;;;;23.47;6.27;;;19.00;57.00;;;;;;5067827;28;20393;-87
2023/04/27 15:29:37;;;;;;;31.53;7.40;;;19.00;57.00;;;;;;5067692;28;20199;-87
2023/04/27 15:32:04;;;;;;;83.03;11.70;;;19.00;56.80;;;;;;5073406;28;20892;-87
2023/04/27 15:34:32;;;;;;;28.80;7.07;;;19.00;56.90;;;;;;5074512;28;20195;-86
2023/04/27 15:37:05;;;;;;;29.33;7.30;;;19.00;56.90;;;;;;5073123;28;20191;-87
2023/04/27 15:39:32;;;;;;;31.23;7.43;;;19.00;56.80;;;;;;5071253;28;20191;-89
2023/04/27 15:42:00;;;;;;;23.03;6.23;;;19.00;56.90;;;;;;5081472;28;20290;-86
2023/04/27 15:44:30;;;;;;;42.03;8.30;;;19.00;56.80;;;;;;5067490;28;20195;-87
2023/04/27 15:46:57;;;;;;;23.17;7.27;;;19.00;56.80;;;;;;5066996;28;20281;-86
2023/04/27 15:49:25;;;;;;;24.67;6.73;;;19.10;56.80;;;;;;5074786;28;20203;-87
2023/04/27 15:51:54;;;;;;;43.10;8.17;;;19.00;56.80;;;;;;5073554;28;20213;-86
2023/04/27 15:54:21;;;;;;;26.73;6.73;;;19.00;56.70;;;;;;5090951;28;20705;-86
2023/04/27 15:56:47;;;;;;;45.07;8.50;;;19.10;57.30;;;;;;5084507;28;20196;-86
2023/04/27 15:59:16;;;;;;;28.20;7.40;;;19.10;56.70;;;;;;5088384;28;20201;-87
2023/04/27 16:01:43;;;;;;;31.93;7.70;;;19.10;56.60;;;;;;5091145;28;20199;-85
2023/04/27 16:04:10;;;;;;;29.53;7.17;;;19.10;56.60;;;;;;5091563;28;20305;-86
2023/04/27 16:06:38;;;;;;;24.57;6.43;;;19.10;56.60;;;;;;5084662;28;20218;-87
2023/04/27 16:09:08;;;;;;;25.97;6.67;;;19.10;56.70;;;;;;5072622;28;20223;-87
2023/04/27 16:11:35;;;;;;;18.50;6.37;;;19.10;56.60;;;;;;5071636;28;20211;-86
2023/04/27 16:14:02;;;;;;;24.67;6.80;;;19.10;56.60;;;;;;5077476;28;20281;-86
2023/04/27 16:16:31;;;;;;;22.80;6.63;;;19.10;56.60;;;;;;5081534;28;20209;-89
2023/04/27 16:18:58;;;;;;;32.13;7.37;;;19.10;56.60;;;;;;5090919;28;20201;-87
2023/04/27 16:21:25;;;;;;;27.80;7.27;;;19.20;56.60;;;;;;5091109;28;20293;-86
2023/04/27 16:23:52;;;;;;;31.33;7.40;;;19.20;56.60;;;;;;5090719;28;20629;-86
2023/04/27 16:26:19;;;;;;;22.63;6.43;;;19.20;56.60;;;;;;5091224;28;20195;-86
2023/04/27 16:28:46;;;;;;;33.80;7.80;;;19.20;56.60;;;;;;5081928;28;21002;-85
2023/04/27 16:31:14;;;;;;;28.70;6.80;;;19.20;56.60;;;;;;5073027;28;20286;-86
2023/04/27 16:33:42;;;;;;;18.43;6.10;;;19.20;56.50;;;;;;5070627;28;20302;-86
2023/04/27 16:36:10;;;;;;;92.90;12.60;;;19.20;56.50;;;;;;5068352;28;20292;-85
2023/04/27 16:38:37;;;;;;;26.53;7.50;;;19.20;56.50;;;;;;5079359;28;20203;-86
2023/04/27 16:41:05;;;;;;;39.47;8.23;;;19.20;56.50;;;;;;5069373;28;20200;-86
2023/04/27 16:43:32;;;;;;;31.13;8.03;;;19.20;56.50;;;;;;5067804;28;20589;-86
2023/04/27 16:45:59;;;;;;;24.90;6.67;;;19.20;56.50;;;;;;5070029;28;20200;-86
2023/04/27 16:48:26;;;;;;;24.63;7.10;;;19.20;56.50;;;;;;5070328;28;20239;-86
2023/04/27 16:50:55;;;;;;;22.37;6.50;;;19.20;56.50;;;;;;5070839;28;20207;-87
2023/04/27 16:53:22;;;;;;;47.77;9.43;;;19.20;56.40;;;;;;5071967;28;20751;-87
2023/04/27 16:55:49;;;;;;;26.80;7.10;;;19.20;56.40;;;;;;5104122;28;20183;-86
2023/04/27 16:58:16;;;;;;;25.53;7.33;;;19.20;56.50;;;;;;5102866;28;20238;-88
2023/04/27 17:00:46;;;;;;;24.97;6.73;;;19.20;56.40;;;;;;5094214;28;20250;-87
2023/04/27 17:03:13;;;;;;;26.93;6.80;;;19.20;56.40;;;;;;5093432;28;20278;-89
2023/04/27 17:05:40;;;;;;;22.63;6.80;;;19.20;56.40;;;;;;5092723;28;20195;-91
2023/04/27 17:08:09;;;;;;;26.60;7.43;;;19.30;56.40;;;;;;5090332;28;20322;-88
2023/04/27 17:10:36;;;;;;;24.37;7.53;;;19.30;56.40;;;;;;5090836;28;20297;-89
2023/04/27 17:13:04;;;;;;;27.40;7.63;;;19.20;56.30;;;;;;5086905;28;20711;-91
2023/04/27 17:15:31;;;;;;;21.87;6.90;;;19.30;56.40;;;;;;5072693;28;20198;-86
2023/04/27 17:17:58;;;;;;;34.20;8.13;;;19.30;56.40;;;;;;5070859;28;20298;-85
2023/04/27 17:20:25;;;;;;;27.53;7.37;;;19.30;56.40;;;;;;5069572;28;20247;-86
2023/04/27 17:22:52;;;;;;;36.93;8.60;;;19.30;56.40;;;;;;5069922;28;20204;-85
2023/04/27 17:25:21;;;;;;;26.00;6.93;;;19.30;56.40;;;;;;5069685;28;20247;-86
2023/04/27 17:27:48;;;;;;;32.33;7.83;;;19.30;56.40;;;;;;5069388;28;20211;-87
2023/04/27 17:30:17;;;;;;;30.63;8.90;;;19.30;56.30;;;;;;5069494;28;20294;-86
2023/04/27 17:32:44;;;;;;;34.00;9.50;;;19.30;56.20;;;;;;5081042;28;20302;-85
2023/04/27 17:35:11;;;;;;;31.77;9.60;;;19.30;56.30;;;;;;5069683;28;20628;-85
2023/04/27 17:37:38;;;;;;;46.53;11.30;;;19.30;56.30;;;;;;5070671;28;20228;-85
2023/04/27 17:40:07;;;;;;;28.60;9.67;;;19.30;56.30;;;;;;5069333;28;20302;-85
2023/04/27 17:42:36;;;;;;;36.40;10.10;;;19.30;56.30;;;;;;5069331;28;20265;-85
2023/04/27 17:45:03;;;;;;;30.07;9.13;;;19.30;56.40;;;;;;5069834;28;20241;-89
2023/04/27 17:47:31;;;;;;;25.30;9.80;;;19.30;56.20;;;;;;5069345;28;20239;-86
2023/04/27 17:49:58;;;;;;;31.90;9.80;;;19.30;56.20;;;;;;5073077;28;20298;-85
2023/04/27 17:52:27;;;;;;;35.37;9.97;;;19.30;56.20;;;;;;5089742;28;20633;-86
2023/04/27 17:54:54;;;;;;;45.13;10.93;;;19.30;56.20;;;;;;5089194;28;20731;-85
2023/04/27 17:57:21;;;;;;;31.53;9.57;;;19.30;56.20;;;;;;5089458;28;20577;-85
2023/04/27 17:59:50;;;;;;;26.10;8.27;;;19.30;56.20;;;;;;5089171;28;20638;-87
2023/04/27 18:02:16;;;;;;;20.90;7.67;;;19.30;56.20;;;;;;5089611;28;20199;-87
2023/04/27 18:04:43;;;;;;;28.67;8.53;;;19.30;56.20;;;;;;5089004;28;20651;-88
2023/04/27 18:07:10;;;;;;;17.90;7.50;;;19.30;56.20;;;;;;5087175;28;20213;-86
2023/04/27 18:09:38;;;;;;;27.53;8.67;;;19.30;56.10;;;;;;5071389;28;20240;-87
2023/04/27 18:12:09;;;;;;;31.97;8.97;;;19.30;56.10;;;;;;5068963;28;20231;-86
2023/04/27 18:14:37;;;;;;;32.00;8.83;;;19.30;56.10;;;;;;5068680;28;20601;-86
2023/04/27 18:17:05;;;;;;;33.70;8.77;;;19.30;56.10;;;;;;5068123;28;20195;-89
2023/04/27 18:19:32;;;;;;;37.60;10.43;;;19.30;56.00;;;;;;5068832;28;20299;-87
2023/04/27 18:21:59;;;;;;;31.47;11.17;;;19.30;56.00;;;;;;5068863;28;20273;-90
2023/04/27 18:24:26;;;;;;;31.10;11.57;;;19.30;56.00;;;;;;5068629;28;20235;-88
2023/04/27 18:26:53;;;;;;;28.83;10.20;;;19.30;56.00;;;;;;5068669;28;20314;-89
2023/04/27 18:29:20;;;;;;;37.77;12.03;;;19.30;56.00;;;;;;5068495;28;20313;-88
2023/04/27 18:31:48;;;;;;;29.80;9.70;;;19.20;56.00;;;;;;5069249;28;20207;-86
2023/04/27 18:34:16;;;;;;;33.27;10.80;;;19.20;55.90;;;;;;5073514;28;20199;-90
2023/04/27 18:36:46;;;;;;;42.70;10.70;;;19.30;55.90;;;;;;5076785;28;20632;-87
2023/04/27 18:39:13;;;;;;;33.97;9.93;;;19.30;56.00;;;;;;5088469;28;20259;-88
2023/04/27 18:41:39;;;;;;;37.00;9.83;;;19.20;55.80;;;;;;5078078;28;20305;-88
2023/04/27 18:44:06;;;;;;;33.87;9.50;;;19.20;55.80;;;;;;5067326;28;20286;-84
2023/04/27 18:46:33;;;;;;;38.13;10.23;;;19.20;55.80;;;;;;5078788;28;20207;-85
2023/04/27 18:49:02;;;;;;;40.63;10.47;;;19.20;55.80;;;;;;5087866;28;20236;-85
2023/04/27 18:51:31;;;;;;;31.40;8.97;;;19.20;55.80;;;;;;5088178;28;20278;-85
2023/04/27 18:53:58;;;;;;;29.23;8.97;;;19.20;55.80;;;;;;5087786;28;20263;-85
2023/04/27 18:56:25;;;;;;;42.27;9.63;;;19.20;55.80;;;;;;5088081;28;20291;-84
2023/04/27 18:58:52;;;;;;;39.23;9.87;;;19.30;56.40;;;;;;5087919;28;20220;-85
2023/04/27 19:01:20;;;;;;;32.97;9.23;;;19.20;55.70;;;;;;5088012;28;20210;-85
2023/04/27 19:03:47;;;;;;;39.40;9.80;;;19.20;55.70;;;;;;5087592;28;20195;-85
2023/04/27 19:06:14;;;;;;;34.27;9.10;;;19.20;55.70;;;;;;5086465;28;20206;-85
2023/04/27 19:08:43;;;;;;;34.50;8.90;;;19.20;55.70;;;;;;5072801;28;20627;-85
2023/04/27 19:11:11;;;;;;;43.43;9.53;;;19.20;55.60;;;;;;5067033;28;20294;-84
2023/04/27 19:13:39;;;;;;;38.07;10.33;;;19.20;55.60;;;;;;5074318;28;20206;-84
2023/04/27 19:16:08;;;;;;;44.17;10.27;;;19.10;55.60;;;;;;5087723;28;20220;-85
2023/04/27 19:18:35;;;;;;;39.17;9.60;;;19.20;55.60;;;;;;5087833;28;20205;-88
2023/04/27 19:21:03;;;;;;;37.03;9.90;;;19.20;55.60;;;;;;5087633;28;20305;-86
2023/04/27 19:23:30;;;;;;;43.93;11.60;;;19.10;55.50;;;;;;5087813;28;20278;-89
2023/04/27 19:25:59;;;;;;;34.80;9.67;;;19.10;55.50;;;;;;5087631;28;20250;-85
2023/04/27 19:28:26;;;;;;;36.20;10.73;;;19.10;55.40;;;;;;5090336;28;20634;-85
2023/04/27 19:30:53;;;;;;;36.10;10.13;;;19.10;55.40;;;;;;5092025;28;20282;-84
2023/04/27 19:33:21;;;;;;;32.07;9.90;;;19.10;55.40;;;;;;5092343;28;20274;-84
2023/04/27 19:35:48;;;;;;;39.47;10.40;;;19.10;55.40;;;;;;5084962;28;20199;-84
2023/04/27 19:38:17;;;;;;;34.27;9.13;;;19.10;55.40;;;;;;5071026;28;20298;-84
2023/04/27 19:40:44;;;;;;;39.50;10.40;;;19.10;55.40;;;;;;5070962;28;20198;-85
2023/04/27 19:43:12;;;;;;;33.40;11.10;;;19.10;55.40;;;;;;5072033;28;20322;-85
2023/04/27 19:45:40;;;;;;;34.77;10.53;;;19.10;55.40;;;;;;5071274;28;20324;-85
2023/04/27 19:48:07;;;;;;;38.73;10.87;;;19.00;55.40;;;;;;5071094;28;20249;-86
2023/04/27 19:50:37;;;;;;;39.73;10.83;;;19.10;55.40;;;;;;5071347;28;20202;-88
2023/04/27 19:53:04;;;;;;;45.93;11.03;;;19.00;55.30;;;;;;5070751;28;20286;-89
2023/04/27 19:55:31;;;;;;;40.90;10.67;;;19.00;55.30;;;;;;5071310;28;20640;-90
2023/04/27 19:57:58;;;;;;;36.93;11.20;;;19.00;55.20;;;;;;5071124;28;20264;-85
2023/04/27 20:00:26;;;;;;;37.20;10.70;;;19.00;55.20;;;;;;5070950;28;20302;-85
2023/04/27 20:02:53;;;;;;;33.77;10.57;;;19.00;55.10;;;;;;5071061;28;20284;-85
2023/04/27 20:05:20;;;;;;;56.87;12.43;;;19.00;55.20;;;;;;5086504;28;20205;-85
2023/04/27 20:07:48;;;;;;;38.00;10.53;;;19.00;55.20;;;;;;5090668;28;20294;-85
2023/04/27 20:10:16;;;;;;;41.30;11.33;;;19.00;55.10;;;;;;5075984;28;20305;-85
2023/04/27 20:12:43;;;;;;;38.17;11.53;;;19.00;55.10;;;;;;5070904;28;20281;-86
2023/04/27 20:15:10;;;;;;;42.43;11.73;;;19.00;55.10;;;;;;5070570;28;20748;-86
2023/04/27 20:17:39;;;;;;;37.80;11.17;;;19.00;55.10;;;;;;5070875;28;20207;-87
2023/04/27 20:20:09;;;;;;;40.77;11.83;;;18.90;55.00;;;;;;5070207;28;21106;-86
2023/04/27 20:22:36;;;;;;;44.17;12.33;;;18.90;55.10;;;;;;5070744;28;20260;-86
2023/04/27 20:25:06;;;;;;;52.27;13.93;;;18.90;55.10;;;;;;5071087;28;20271;-86
2023/04/27 20:27:33;;;;;;;53.00;14.47;;;18.90;55.00;;;;;;5072885;28;20245;-87
2023/04/27 20:30:00;;;;;;;55.87;13.50;;;18.90;55.00;;;;;;5085844;28;20231;-86
2023/04/27 20:32:27;;;;;;;39.93;13.27;;;18.90;55.00;;;;;;5086284;28;20230;-85
2023/04/27 20:34:57;;;;;;;43.90;11.97;;;18.90;55.00;;;;;;5072526;28;20615;-86
2023/04/27 20:37:24;;;;;;;44.07;12.70;;;18.90;54.90;;;;;;5082291;28;20734;-86
2023/04/27 20:39:52;;;;;;;45.00;12.70;;;18.90;55.00;;;;;;5090757;28;20203;-86
2023/04/27 20:42:21;;;;;;;35.17;11.97;;;18.90;55.00;;;;;;5091717;28;20230;-87
2023/04/27 20:44:49;;;;;;;38.40;12.90;;;18.90;54.90;;;;;;5091594;28;20194;-86
2023/04/27 20:47:16;;;;;;;43.77;13.47;;;18.90;54.90;;;;;;5091004;28;20286;-88
2023/04/27 20:49:43;;;;;;;40.80;13.13;;;18.90;54.90;;;;;;5090804;28;20660;-86
2023/04/27 20:52:11;;;;;;;39.20;12.43;;;18.90;54.90;;;;;;5090780;28;20294;-85
2023/04/27 20:54:38;;;;;;;38.20;13.17;;;18.80;54.80;;;;;;5090416;28;20286;-85
2023/04/27 20:57:09;;;;;;;42.90;14.30;;;18.80;54.80;;;;;;5091045;28;20302;-85
2023/04/27 20:59:36;;;;;;;44.37;13.70;;;18.80;54.80;;;;;;5090311;28;20221;-87
2023/04/27 21:02:03;;;;;;;43.73;15.07;;;18.80;54.80;;;;;;5090476;28;20206;-85
2023/04/27 21:04:30;;;;;;;41.47;13.83;;;18.80;55.40;;;;;;5088576;28;20650;-85
2023/04/27 21:06:57;;;;;;;47.37;14.27;;;18.80;54.80;;;;;;5090299;28;20210;-86
2023/04/27 21:09:25;;;;;;;39.63;13.87;;;18.80;54.80;;;;;;5070279;28;20314;-86
2023/04/27 21:11:52;;;;;;;46.83;14.67;;;18.80;54.80;;;;;;5070062;28;20302;-86
2023/04/27 21:14:19;;;;;;;39.43;13.23;;;18.70;54.70;;;;;;5069603;28;20231;-87
2023/04/27 21:16:46;;;;;;;78.83;16.77;;;18.70;54.70;;;;;;5068502;28;20279;-86
2023/04/27 21:19:15;;;;;;;50.50;15.07;;;18.70;54.70;;;;;;5069683;28;20219;-90
2023/04/27 21:21:42;;;;;;;42.57;13.23;;;18.70;54.70;;;;;;5069743;28;20211;-86
2023/04/27 21:24:09;;;;;;;41.93;13.27;;;18.70;54.70;;;;;;5069340;28;20739;-87
2023/04/27 21:26:38;;;;;;;43.77;14.77;;;18.70;54.70;;;;;;5070037;28;20225;-86
2023/04/27 21:29:07;;;;;;;46.97;14.50;;;18.70;54.70;;;;;;5069431;28;20314;-85
2023/04/27 21:31:34;;;;;;;41.07;14.20;;;18.70;54.70;;;;;;5069494;28;20207;-86
2023/04/27 21:34:02;;;;;;;46.93;14.93;;;18.70;54.70;;;;;;5069861;28;20198;-86
2023/04/27 21:36:30;;;;;;;39.47;13.27;;;18.70;54.70;;;;;;5089730;28;20681;-85
2023/04/27 21:38:57;;;;;;;40.23;14.00;;;18.60;54.60;;;;;;5089704;28;20260;-87
2023/04/27 21:41:25;;;;;;;48.67;14.57;;;18.60;54.60;;;;;;5089271;28;20219;-86
2023/04/27 21:43:53;;;;;;;46.37;14.50;;;18.60;54.60;;;;;;5089371;28;20287;-86
2023/04/27 21:46:20;;;;;;;44.53;13.43;;;18.60;54.60;;;;;;5089489;28;20190;-86
2023/04/27 21:48:47;;;;;;;41.10;13.87;;;18.60;54.60;;;;;;5089569;28;20187;-86
2023/04/27 21:51:14;;;;;;;47.77;13.97;;;18.60;54.60;;;;;;5088137;28;20274;-86
2023/04/27 21:53:41;;;;;;;53.73;14.53;;;18.60;54.60;;;;;;5076979;28;20198;-86
2023/04/27 21:56:08;;;;;;;52.87;14.97;;;18.50;54.50;;;;;;5084201;28;20771;-84
2023/04/27 21:58:35;;;;;;;44.97;13.03;;;18.50;54.60;;;;;;5078400;28;20213;-86
2023/04/27 22:01:03;;;;;;;41.23;13.63;;;18.50;54.50;;;;;;5074600;28;20735;-86
2023/04/27 22:03:31;;;;;;;47.50;14.27;;;18.50;54.50;;;;;;5075756;28;20293;-87
2023/04/27 22:05:58;;;;;;;39.33;13.17;;;18.50;54.50;;;;;;5085071;28;20213;-86
2023/04/27 22:08:25;;;;;;;47.70;14.13;;;18.50;54.50;;;;;;5068886;28;20295;-86
2023/04/27 22:10:52;;;;;;;40.33;12.20;;;18.50;54.50;;;;;;5083113;28;20306;-86
2023/04/27 22:13:19;;;;;;;52.70;14.87;;;18.50;54.50;;;;;;5081503;28;20206;-86
2023/04/27 22:15:46;;;;;;;42.67;13.43;;;18.50;54.50;;;;;;5071801;28;20279;-87
2023/04/27 22:18:15;;;;;;;50.30;13.93;;;18.50;54.50;;;;;;5069142;28;20293;-86
2023/04/27 22:20:42;;;;;;;39.47;12.83;;;18.50;54.50;;;;;;5067521;28;20227;-87
2023/04/27 22:23:10;;;;;;;45.93;13.43;;;18.50;54.50;;;;;;5068413;28;20765;-86
2023/04/27 22:25:37;;;;;;;56.07;13.83;;;18.40;54.50;;;;;;5068003;28;20261;-87
2023/04/27 22:28:04;;;;;;;50.37;14.00;;;18.40;54.50;;;;;;5068522;28;20235;-87
2023/04/27 22:30:31;;;;;;;60.43;13.67;;;18.40;54.50;;;;;;5067519;28;20231;-87
2023/04/27 22:32:58;;;;;;;41.47;12.80;;;18.40;54.50;;;;;;5087395;28;20207;-90
2023/04/27 22:35:26;;;;;;;48.87;13.73;;;18.40;54.50;;;;;;5077713;28;20243;-90
2023/04/27 22:37:54;;;;;;;40.37;12.60;;;18.40;54.40;;;;;;5078126;28;20219;-90
2023/04/27 22:40:21;;;;;;;46.03;13.63;;;18.40;54.50;;;;;;5081974;28;20574;-87
2023/04/27 22:42:48;;;;;;;40.50;12.23;;;18.40;54.50;;;;;;5088043;28;20293;-86
2023/04/27 22:45:16;;;;;;;43.00;13.03;;;18.40;54.50;;;;;;5070368;28;20217;-86
2023/04/27 22:47:44;;;;;;;49.07;13.07;;;18.40;54.50;;;;;;5088176;28;20202;-86
2023/04/27 22:50:12;;;;;;;45.10;12.10;;;18.30;54.40;;;;;;5071862;28;20231;-86
2023/04/27 22:52:41;;;;;;;40.37;11.97;;;18.30;54.40;;;;;;5075922;28;22076;-85
2023/04/27 22:55:09;;;;;;;39.20;11.87;;;18.30;54.30;;;;;;5075861;28;20235;-88
2023/04/27 22:57:36;;;;;;;75.80;14.63;;;18.30;54.30;;;;;;5071726;28;20270;-90
2023/04/27 23:00:05;;;;;;;43.90;11.80;;;18.30;54.30;;;;;;5076624;28;20276;-84
2023/04/27 23:02:32;;;;;;;50.20;12.60;;;18.30;54.30;;;;;;5085439;28;20233;-84
2023/04/27 23:04:59;;;;;;;46.53;12.73;;;18.30;54.40;;;;;;5077021;28;20446;-85
2023/04/27 23:07:27;;;;;;;37.80;11.47;;;18.30;54.30;;;;;;5077918;28;20704;-85
2023/04/27 23:09:57;;;;;;;43.87;11.10;;;18.20;54.20;;;;;;5088490;28;20272;-84
2023/04/27 23:12:25;;;;;;;50.00;13.40;;;18.20;54.20;;;;;;5085061;28;20551;-85
2023/04/27 23:14:52;;;;;;;67.80;13.80;;;18.20;54.20;;;;;;5074356;28;20651;-84
2023/04/27 23:17:21;;;;;;;37.07;11.53;;;18.20;54.20;;;;;;5083026;28;20290;-85
2023/04/27 23:19:48;;;;;;;64.20;13.87;;;18.20;54.80;;;;;;5067672;28;20199;-85
2023/04/27 23:22:15;;;;;;;43.43;12.27;;;18.20;54.20;;;;;;5075947;28;21001;-84
2023/04/27 23:24:42;;;;;;;49.37;12.87;;;18.20;54.20;;;;;;5072531;28;20337;-83
2023/04/27 23:27:11;;;;;;;52.27;12.53;;;18.20;54.20;;;;;;5075389;28;20309;-83
2023/04/27 23:29:38;;;;;;;38.70;10.97;;;18.20;54.20;;;;;;5073609;28;20852;-91
2023/04/27 23:32:06;;;;;;;56.80;13.63;;;18.20;54.20;;;;;;5076278;28;20205;-87
2023/04/27 23:34:33;;;;;;;36.87;11.40;;;18.20;54.20;;;;;;5074249;28;20222;-85
2023/04/27 23:37:00;;;;;;;38.77;11.77;;;18.10;54.10;;;;;;5085519;28;20330;-85
2023/04/27 23:39:27;;;;;;;38.67;11.27;;;18.20;54.20;;;;;;5087661;28;20294;-84
2023/04/27 23:41:55;;;;;;;50.13;12.43;;;18.10;54.10;;;;;;5083304;28;20440;-87